sensor_id;sensor_type;location;lat;lon;timestamp;temperature;humidity
9975;DHT22;5028;50.974;4.968;2023-09-08T00:00:38;21.10;99.90
9975;DHT22;5028;50.974;4.968;2023-09-08T00:03:07;21.10;99.90
9975;DHT22;5028;50.974;4.968;2023-09-08T00:05:37;21.00;99.90
9975;DHT22;5028;50.974;4.968;2023-09-08T00:08:05;21.00;99.90
9975;DHT22;5028;50.974;4.968;2023-09-08T00:10:34;20.90;99.90
9975;DHT22;5028;50.974;4.968;2023-09-08T00:13:03;20.90;99.90
9975;DHT22;5028;50.974;4.968;2023-09-08T00:15:34;20.90;99.90
9975;DHT22;5028;50.974;4.968;2023-09-08T00:18:03;20.90;99.90
9975;DHT22;5028;50.974;4.968;2023-09-08T00:20:32;20.80;99.90
9975;DHT22;5028;50.974;4.968;2023-09-08T00:23:03;20.80;99.90
9975;DHT22;5028;50.974;4.968;2023-09-08T00:25:32;20.80;99.90
9975;DHT22;5028;50.974;4.968;2023-09-08T00:28:01;20.80;99.90
9975;DHT22;5028;50.974;4.968;2023-09-08T00:30:30;20.80;99.90
9975;DHT22;5028;50.974;4.968;2023-09-08T00:32:59;20.80;99.90
9975;DHT22;5028;50.974;4.968;2023-09-08T00:35:28;20.80;99.90
9975;DHT22;5028;50.974;4.968;2023-09-08T00:37:56;20.70;99.90
9975;DHT22;5028;50.974;4.968;2023-09-08T00:40:28;20.70;99.90
9975;DHT22;5028;50.974;4.968;2023-09-08T00:42:57;20.70;99.90
9975;DHT22;5028;50.974;4.968;2023-09-08T00:45:28;20.70;99.90
9975;DHT22;5028;50.974;4.968;2023-09-08T00:47:58;20.70;99.90
9975;DHT22;5028;50.974;4.968;2023-09-08T00:50:27;20.70;99.90
9975;DHT22;5028;50.974;4.968;2023-09-08T00:52:55;20.70;99.90
9975;DHT22;5028;50.974;4.968;2023-09-08T00:55:24;20.60;99.90
9975;DHT22;5028;50.974;4.968;2023-09-08T00:57:55;20.60;99.90
9975;DHT22;5028;50.974;4.968;2023-09-08T01:00:24;20.60;99.90
9975;DHT22;5028;50.974;4.968;2023-09-08T01:02:53;20.50;99.90
9975;DHT22;5028;50.974;4.968;2023-09-08T01:05:21;20.50;99.90
9975;DHT22;5028;50.974;4.968;2023-09-08T01:07:51;20.50;99.90
9975;DHT22;5028;50.974;4.968;2023-09-08T01:10:20;20.50;99.90
9975;DHT22;5028;50.974;4.968;2023-09-08T01:12:49;20.50;99.90
9975;DHT22;5028;50.974;4.968;2023-09-08T01:15:20;20.40;99.90
9975;DHT22;5028;50.974;4.968;2023-09-08T01:17:49;20.40;99.90
9975;DHT22;5028;50.974;4.968;2023-09-08T01:20:20;20.40;99.90
9975;DHT22;5028;50.974;4.968;2023-09-08T01:23:09;20.40;99.90
9975;DHT22;5028;50.974;4.968;2023-09-08T01:25:46;20.40;99.90
9975;DHT22;5028;50.974;4.968;2023-09-08T01:28:18;20.30;99.90
9975;DHT22;5028;50.974;4.968;2023-09-08T01:30:51;20.30;99.90
9975;DHT22;5028;50.974;4.968;2023-09-08T01:33:22;20.30;99.90
9975;DHT22;5028;50.974;4.968;2023-09-08T01:35:51;20.30;99.90
9975;DHT22;5028;50.974;4.968;2023-09-08T01:38:21;20.20;99.90
9975;DHT22;5028;50.974;4.968;2023-09-08T01:40:51;20.20;99.90
9975;DHT22;5028;50.974;4.968;2023-09-08T01:43:21;20.20;99.90
9975;DHT22;5028;50.974;4.968;2023-09-08T01:45:50;20.20;99.90
9975;DHT22;5028;50.974;4.968;2023-09-08T01:48:19;20.10;99.90
9975;DHT22;5028;50.974;4.968;2023-09-08T01:50:48;20.10;99.90
9975;DHT22;5028;50.974;4.968;2023-09-08T01:53:17;20.10;99.90
9975;DHT22;5028;50.974;4.968;2023-09-08T01:55:45;20.10;99.90
9975;DHT22;5028;50.974;4.968;2023-09-08T01:58:15;20.00;99.90
9975;DHT22;5028;50.974;4.968;2023-09-08T02:00:48;20.00;99.90
9975;DHT22;5028;50.974;4.968;2023-09-08T02:03:17;20.00;99.90
9975;DHT22;5028;50.974;4.968;2023-09-08T02:05:46;20.00;99.90
9975;DHT22;5028;50.974;4.968;2023-09-08T02:08:15;20.00;99.90
9975;DHT22;5028;50.974;4.968;2023-09-08T02:10:43;19.90;99.90
9975;DHT22;5028;50.974;4.968;2023-09-08T02:13:12;19.90;99.90
9975;DHT22;5028;50.974;4.968;2023-09-08T02:15:42;19.90;99.90
9975;DHT22;5028;50.974;4.968;2023-09-08T02:18:11;19.90;99.90
9975;DHT22;5028;50.974;4.968;2023-09-08T02:20:40;19.90;99.90
9975;DHT22;5028;50.974;4.968;2023-09-08T02:23:08;19.80;99.90
9975;DHT22;5028;50.974;4.968;2023-09-08T02:25:36;19.80;99.90
9975;DHT22;5028;50.974;4.968;2023-09-08T02:28:06;19.80;99.90
9975;DHT22;5028;50.974;4.968;2023-09-08T02:30:34;19.80;99.90
9975;DHT22;5028;50.974;4.968;2023-09-08T02:33:05;19.80;99.90
9975;DHT22;5028;50.974;4.968;2023-09-08T02:35:36;19.80;99.90
9975;DHT22;5028;50.974;4.968;2023-09-08T02:38:06;19.70;99.90
9975;DHT22;5028;50.974;4.968;2023-09-08T02:40:34;19.70;99.90
9975;DHT22;5028;50.974;4.968;2023-09-08T02:43:04;19.70;99.90
9975;DHT22;5028;50.974;4.968;2023-09-08T02:45:32;19.70;99.90
9975;DHT22;5028;50.974;4.968;2023-09-08T02:48:02;19.70;99.90
9975;DHT22;5028;50.974;4.968;2023-09-08T02:50:32;19.70;99.90
9975;DHT22;5028;50.974;4.968;2023-09-08T02:53:01;19.70;99.90
9975;DHT22;5028;50.974;4.968;2023-09-08T02:55:30;19.60;99.90
9975;DHT22;5028;50.974;4.968;2023-09-08T02:57:59;19.60;99.90
9975;DHT22;5028;50.974;4.968;2023-09-08T03:00:27;19.60;99.90
9975;DHT22;5028;50.974;4.968;2023-09-08T03:02:56;19.60;99.90
9975;DHT22;5028;50.974;4.968;2023-09-08T03:05:25;19.50;99.90
9975;DHT22;5028;50.974;4.968;2023-09-08T03:07:55;19.60;99.90
9975;DHT22;5028;50.974;4.968;2023-09-08T03:10:24;19.60;99.90
9975;DHT22;5028;50.974;4.968;2023-09-08T03:12:55;19.50;99.90
9975;DHT22;5028;50.974;4.968;2023-09-08T03:15:24;19.50;99.90
9975;DHT22;5028;50.974;4.968;2023-09-08T03:17:55;19.50;99.90
9975;DHT22;5028;50.974;4.968;2023-09-08T03:20:25;19.50;99.90
9975;DHT22;5028;50.974;4.968;2023-09-08T03:22:55;19.50;99.90
9975;DHT22;5028;50.974;4.968;2023-09-08T03:25:24;19.40;99.90
9975;DHT22;5028;50.974;4.968;2023-09-08T03:27:53;19.40;99.90
9975;DHT22;5028;50.974;4.968;2023-09-08T03:30:22;19.40;99.90
9975;DHT22;5028;50.974;4.968;2023-09-08T03:32:50;19.40;99.90
9975;DHT22;5028;50.974;4.968;2023-09-08T03:35:19;19.30;99.90
9975;DHT22;5028;50.974;4.968;2023-09-08T03:37:48;19.30;99.90
9975;DHT22;5028;50.974;4.968;2023-09-08T03:40:18;19.30;99.90
9975;DHT22;5028;50.974;4.968;2023-09-08T03:42:47;19.20;99.90
9975;DHT22;5028;50.974;4.968;2023-09-08T03:45:18;19.10;99.90
9975;DHT22;5028;50.974;4.968;2023-09-08T03:47:48;19.10;99.90
9975;DHT22;5028;50.974;4.968;2023-09-08T03:50:16;19.00;99.90
9975;DHT22;5028;50.974;4.968;2023-09-08T03:52:45;19.00;99.90
9975;DHT22;5028;50.974;4.968;2023-09-08T03:55:14;18.90;99.90
9975;DHT22;5028;50.974;4.968;2023-09-08T03:57:45;18.90;99.90
9975;DHT22;5028;50.974;4.968;2023-09-08T04:00:15;18.90;99.90
9975;DHT22;5028;50.974;4.968;2023-09-08T04:02:50;18.90;99.90
9975;DHT22;5028;50.974;4.968;2023-09-08T04:05:19;18.90;99.90
9975;DHT22;5028;50.974;4.968;2023-09-08T04:07:48;18.90;99.90
9975;DHT22;5028;50.974;4.968;2023-09-08T04:10:16;18.90;99.90
9975;DHT22;5028;50.974;4.968;2023-09-08T04:12:47;18.90;99.90
9975;DHT22;5028;50.974;4.968;2023-09-08T04:15:15;18.90;99.90
9975;DHT22;5028;50.974;4.968;2023-09-08T04:17:45;18.90;99.90
9975;DHT22;5028;50.974;4.968;2023-09-08T04:20:15;18.90;99.90
9975;DHT22;5028;50.974;4.968;2023-09-08T04:22:44;18.90;99.90
9975;DHT22;5028;50.974;4.968;2023-09-08T04:25:14;18.80;99.90
9975;DHT22;5028;50.974;4.968;2023-09-08T04:27:42;18.70;99.90
9975;DHT22;5028;50.974;4.968;2023-09-08T04:30:13;18.60;99.90
9975;DHT22;5028;50.974;4.968;2023-09-08T04:32:42;18.60;99.90
9975;DHT22;5028;50.974;4.968;2023-09-08T04:35:11;18.40;99.90
9975;DHT22;5028;50.974;4.968;2023-09-08T04:37:40;18.40;99.90
9975;DHT22;5028;50.974;4.968;2023-09-08T04:40:09;18.40;99.90
9975;DHT22;5028;50.974;4.968;2023-09-08T04:42:38;18.40;99.90
9975;DHT22;5028;50.974;4.968;2023-09-08T04:45:07;18.40;99.90
9975;DHT22;5028;50.974;4.968;2023-09-08T04:47:37;18.40;99.90
9975;DHT22;5028;50.974;4.968;2023-09-08T04:50:06;18.40;99.90
9975;DHT22;5028;50.974;4.968;2023-09-08T04:52:35;18.40;99.90
9975;DHT22;5028;50.974;4.968;2023-09-08T04:55:04;18.40;99.90
9975;DHT22;5028;50.974;4.968;2023-09-08T04:57:33;18.40;99.90
9975;DHT22;5028;50.974;4.968;2023-09-08T05:00:03;18.40;99.90
9975;DHT22;5028;50.974;4.968;2023-09-08T05:02:31;18.40;99.90
9975;DHT22;5028;50.974;4.968;2023-09-08T05:05:01;18.40;99.90
9975;DHT22;5028;50.974;4.968;2023-09-08T05:07:29;18.40;99.90
9975;DHT22;5028;50.974;4.968;2023-09-08T05:09:58;18.40;99.90
9975;DHT22;5028;50.974;4.968;2023-09-08T05:12:26;18.40;99.90
9975;DHT22;5028;50.974;4.968;2023-09-08T05:14:55;18.40;99.90
9975;DHT22;5028;50.974;4.968;2023-09-08T05:17:27;18.30;99.90
9975;DHT22;5028;50.974;4.968;2023-09-08T05:19:56;18.30;99.90
9975;DHT22;5028;50.974;4.968;2023-09-08T05:22:26;18.30;99.90
9975;DHT22;5028;50.974;4.968;2023-09-08T05:24:55;18.30;99.90
9975;DHT22;5028;50.974;4.968;2023-09-08T05:27:24;18.30;99.90
9975;DHT22;5028;50.974;4.968;2023-09-08T05:29:53;18.40;99.90
9975;DHT22;5028;50.974;4.968;2023-09-08T05:32:21;18.30;99.90
9975;DHT22;5028;50.974;4.968;2023-09-08T05:34:51;18.30;99.90
9975;DHT22;5028;50.974;4.968;2023-09-08T05:37:20;18.40;99.90
9975;DHT22;5028;50.974;4.968;2023-09-08T05:39:50;18.40;99.90
9975;DHT22;5028;50.974;4.968;2023-09-08T05:42:19;18.40;99.90
9975;DHT22;5028;50.974;4.968;2023-09-08T05:44:48;18.40;99.90
9975;DHT22;5028;50.974;4.968;2023-09-08T05:47:16;18.40;99.90
9975;DHT22;5028;50.974;4.968;2023-09-08T05:49:46;18.40;99.90
9975;DHT22;5028;50.974;4.968;2023-09-08T05:52:14;18.40;99.90
9975;DHT22;5028;50.974;4.968;2023-09-08T05:54:43;18.40;99.90
9975;DHT22;5028;50.974;4.968;2023-09-08T05:57:13;18.40;99.90
9975;DHT22;5028;50.974;4.968;2023-09-08T05:59:41;18.50;99.90
9975;DHT22;5028;50.974;4.968;2023-09-08T06:02:10;18.50;99.90
9975;DHT22;5028;50.974;4.968;2023-09-08T06:04:38;18.60;99.90
9975;DHT22;5028;50.974;4.968;2023-09-08T06:07:07;18.60;99.90
9975;DHT22;5028;50.974;4.968;2023-09-08T06:09:36;18.70;99.90
9975;DHT22;5028;50.974;4.968;2023-09-08T06:12:05;18.70;99.90
9975;DHT22;5028;50.974;4.968;2023-09-08T06:14:35;18.70;99.90
9975;DHT22;5028;50.974;4.968;2023-09-08T06:17:04;18.70;99.90
9975;DHT22;5028;50.974;4.968;2023-09-08T06:19:32;18.80;99.90
9975;DHT22;5028;50.974;4.968;2023-09-08T06:22:01;18.80;99.90
9975;DHT22;5028;50.974;4.968;2023-09-08T06:24:30;18.80;99.90
9975;DHT22;5028;50.974;4.968;2023-09-08T06:26:58;18.90;99.90
9975;DHT22;5028;50.974;4.968;2023-09-08T06:29:27;18.90;99.90
9975;DHT22;5028;50.974;4.968;2023-09-08T06:31:58;18.90;99.90
9975;DHT22;5028;50.974;4.968;2023-09-08T06:34:26;19.00;99.90
9975;DHT22;5028;50.974;4.968;2023-09-08T06:36:55;19.10;99.90
9975;DHT22;5028;50.974;4.968;2023-09-08T06:39:25;19.10;99.90
9975;DHT22;5028;50.974;4.968;2023-09-08T06:41:53;19.20;99.90
9975;DHT22;5028;50.974;4.968;2023-09-08T06:44:22;19.20;99.90
9975;DHT22;5028;50.974;4.968;2023-09-08T06:46:51;19.30;99.90
9975;DHT22;5028;50.974;4.968;2023-09-08T06:49:21;19.30;99.90
9975;DHT22;5028;50.974;4.968;2023-09-08T06:51:50;19.40;99.90
9975;DHT22;5028;50.974;4.968;2023-09-08T06:54:19;19.50;99.90
9975;DHT22;5028;50.974;4.968;2023-09-08T06:56:47;19.60;99.90
9975;DHT22;5028;50.974;4.968;2023-09-08T06:59:16;19.60;99.90
9975;DHT22;5028;50.974;4.968;2023-09-08T07:01:45;19.70;99.90
9975;DHT22;5028;50.974;4.968;2023-09-08T07:04:16;19.70;99.90
9975;DHT22;5028;50.974;4.968;2023-09-08T07:06:46;19.80;99.90
9975;DHT22;5028;50.974;4.968;2023-09-08T07:09:17;19.90;99.90
9975;DHT22;5028;50.974;4.968;2023-09-08T07:11:46;19.90;99.90
9975;DHT22;5028;50.974;4.968;2023-09-08T07:14:15;20.00;99.90
9975;DHT22;5028;50.974;4.968;2023-09-08T07:16:43;20.10;99.90
9975;DHT22;5028;50.974;4.968;2023-09-08T07:19:12;20.10;99.90
9975;DHT22;5028;50.974;4.968;2023-09-08T07:21:41;20.20;99.90
9975;DHT22;5028;50.974;4.968;2023-09-08T07:24:11;20.30;99.90
9975;DHT22;5028;50.974;4.968;2023-09-08T07:26:40;20.40;99.90
9975;DHT22;5028;50.974;4.968;2023-09-08T07:29:09;20.50;99.90
9975;DHT22;5028;50.974;4.968;2023-09-08T07:31:39;20.60;99.90
9975;DHT22;5028;50.974;4.968;2023-09-08T07:34:07;20.60;99.90
9975;DHT22;5028;50.974;4.968;2023-09-08T07:36:36;20.70;99.90
9975;DHT22;5028;50.974;4.968;2023-09-08T07:39:05;20.80;99.90
9975;DHT22;5028;50.974;4.968;2023-09-08T07:41:35;20.90;99.90
9975;DHT22;5028;50.974;4.968;2023-09-08T07:44:06;21.10;99.90
9975;DHT22;5028;50.974;4.968;2023-09-08T07:46:35;21.20;99.90
9975;DHT22;5028;50.974;4.968;2023-09-08T07:49:03;21.20;99.90
9975;DHT22;5028;50.974;4.968;2023-09-08T07:51:32;21.40;99.90
9975;DHT22;5028;50.974;4.968;2023-09-08T07:54:01;21.50;99.90
9975;DHT22;5028;50.974;4.968;2023-09-08T07:56:30;21.60;99.90
9975;DHT22;5028;50.974;4.968;2023-09-08T07:59:01;21.60;99.90
9975;DHT22;5028;50.974;4.968;2023-09-08T08:01:30;21.70;99.90
9975;DHT22;5028;50.974;4.968;2023-09-08T08:03:59;21.90;99.90
9975;DHT22;5028;50.974;4.968;2023-09-08T08:06:30;21.90;99.90
9975;DHT22;5028;50.974;4.968;2023-09-08T08:08:59;22.00;99.90
9975;DHT22;5028;50.974;4.968;2023-09-08T08:11:29;22.10;99.90
9975;DHT22;5028;50.974;4.968;2023-09-08T08:13:59;22.20;99.90
9975;DHT22;5028;50.974;4.968;2023-09-08T08:16:29;22.20;99.90
9975;DHT22;5028;50.974;4.968;2023-09-08T08:18:57;22.30;99.90
9975;DHT22;5028;50.974;4.968;2023-09-08T08:21:26;22.40;99.90
9975;DHT22;5028;50.974;4.968;2023-09-08T08:23:58;22.50;99.90
9975;DHT22;5028;50.974;4.968;2023-09-08T08:26:26;22.50;99.90
9975;DHT22;5028;50.974;4.968;2023-09-08T08:28:59;22.60;99.90
9975;DHT22;5028;50.974;4.968;2023-09-08T08:31:30;22.70;99.90
9975;DHT22;5028;50.974;4.968;2023-09-08T08:34:00;22.80;99.90
9975;DHT22;5028;50.974;4.968;2023-09-08T08:36:29;22.90;99.90
9975;DHT22;5028;50.974;4.968;2023-09-08T08:38:57;23.00;99.90
9975;DHT22;5028;50.974;4.968;2023-09-08T08:41:29;23.00;99.90
9975;DHT22;5028;50.974;4.968;2023-09-08T08:43:58;23.20;99.90
9975;DHT22;5028;50.974;4.968;2023-09-08T08:46:31;23.30;99.90
9975;DHT22;5028;50.974;4.968;2023-09-08T08:49:03;23.30;99.90
9975;DHT22;5028;50.974;4.968;2023-09-08T08:51:32;23.40;99.90
9975;DHT22;5028;50.974;4.968;2023-09-08T08:54:03;23.50;99.90
9975;DHT22;5028;50.974;4.968;2023-09-08T08:56:33;23.60;99.90
9975;DHT22;5028;50.974;4.968;2023-09-08T08:59:04;23.70;99.90
9975;DHT22;5028;50.974;4.968;2023-09-08T09:01:34;23.80;99.90
9975;DHT22;5028;50.974;4.968;2023-09-08T09:04:05;23.90;99.90
9975;DHT22;5028;50.974;4.968;2023-09-08T09:06:35;24.10;99.90
9975;DHT22;5028;50.974;4.968;2023-09-08T09:09:03;24.30;99.90
9975;DHT22;5028;50.974;4.968;2023-09-08T09:11:32;24.50;99.90
9975;DHT22;5028;50.974;4.968;2023-09-08T09:14:00;24.80;99.90
9975;DHT22;5028;50.974;4.968;2023-09-08T09:16:29;25.10;99.90
9975;DHT22;5028;50.974;4.968;2023-09-08T09:19:00;25.20;99.90
9975;DHT22;5028;50.974;4.968;2023-09-08T09:21:42;25.40;99.90
9975;DHT22;5028;50.974;4.968;2023-09-08T09:24:15;25.70;99.90
9975;DHT22;5028;50.974;4.968;2023-09-08T09:26:46;26.00;99.90
9975;DHT22;5028;50.974;4.968;2023-09-08T09:29:19;26.50;99.90
9975;DHT22;5028;50.974;4.968;2023-09-08T09:31:52;26.60;99.90
9975;DHT22;5028;50.974;4.968;2023-09-08T09:34:23;26.80;99.90
9975;DHT22;5028;50.974;4.968;2023-09-08T09:36:52;26.90;99.90
9975;DHT22;5028;50.974;4.968;2023-09-08T09:39:22;27.00;99.90
9975;DHT22;5028;50.974;4.968;2023-09-08T09:41:54;27.40;99.90
9975;DHT22;5028;50.974;4.968;2023-09-08T09:44:23;27.70;99.90
9975;DHT22;5028;50.974;4.968;2023-09-08T09:46:55;28.00;99.90
9975;DHT22;5028;50.974;4.968;2023-09-08T09:49:26;28.10;99.90
9975;DHT22;5028;50.974;4.968;2023-09-08T09:51:59;28.10;99.90
9975;DHT22;5028;50.974;4.968;2023-09-08T09:54:29;28.20;99.90
9975;DHT22;5028;50.974;4.968;2023-09-08T09:56:58;28.40;99.90
9975;DHT22;5028;50.974;4.968;2023-09-08T09:59:27;28.90;99.90
9975;DHT22;5028;50.974;4.968;2023-09-08T10:01:56;28.90;99.90
9975;DHT22;5028;50.974;4.968;2023-09-08T10:04:27;29.00;99.90
9975;DHT22;5028;50.974;4.968;2023-09-08T10:06:56;29.40;99.90
9975;DHT22;5028;50.974;4.968;2023-09-08T10:09:25;29.60;99.90
9975;DHT22;5028;50.974;4.968;2023-09-08T10:11:54;29.80;99.90
9975;DHT22;5028;50.974;4.968;2023-09-08T10:14:28;30.00;99.90
9975;DHT22;5028;50.974;4.968;2023-09-08T10:16:59;30.10;99.90
9975;DHT22;5028;50.974;4.968;2023-09-08T10:19:34;30.20;99.90
9975;DHT22;5028;50.974;4.968;2023-09-08T10:22:15;30.30;99.90
9975;DHT22;5028;50.974;4.968;2023-09-08T10:24:46;30.40;99.90
9975;DHT22;5028;50.974;4.968;2023-09-08T10:27:17;30.50;99.90
9975;DHT22;5028;50.974;4.968;2023-09-08T10:29:50;30.70;99.90
9975;DHT22;5028;50.974;4.968;2023-09-08T10:32:19;30.70;99.90
9975;DHT22;5028;50.974;4.968;2023-09-08T10:34:52;31.00;99.90
9975;DHT22;5028;50.974;4.968;2023-09-08T10:37:22;31.30;99.90
9975;DHT22;5028;50.974;4.968;2023-09-08T10:39:51;31.40;99.90
9975;DHT22;5028;50.974;4.968;2023-09-08T10:42:26;31.60;99.90
9975;DHT22;5028;50.974;4.968;2023-09-08T10:45:16;31.50;99.90
9975;DHT22;5028;50.974;4.968;2023-09-08T10:47:57;31.50;99.90
9975;DHT22;5028;50.974;4.968;2023-09-08T10:50:31;31.40;99.90
9975;DHT22;5028;50.974;4.968;2023-09-08T10:53:08;31.40;99.90
9975;DHT22;5028;50.974;4.968;2023-09-08T10:55:42;31.60;99.90
9975;DHT22;5028;50.974;4.968;2023-09-08T10:58:35;31.80;99.90
9975;DHT22;5028;50.974;4.968;2023-09-08T11:01:06;31.80;99.90
9975;DHT22;5028;50.974;4.968;2023-09-08T11:03:45;32.00;99.90
9975;DHT22;5028;50.974;4.968;2023-09-08T11:06:18;32.10;99.90
9975;DHT22;5028;50.974;4.968;2023-09-08T11:08:50;32.00;99.90
9975;DHT22;5028;50.974;4.968;2023-09-08T11:11:25;32.10;99.90
9975;DHT22;5028;50.974;4.968;2023-09-08T11:13:53;32.00;99.90
9975;DHT22;5028;50.974;4.968;2023-09-08T11:16:22;32.00;99.90
9975;DHT22;5028;50.974;4.968;2023-09-08T11:18:56;32.10;99.90
9975;DHT22;5028;50.974;4.968;2023-09-08T11:21:27;32.20;99.90
9975;DHT22;5028;50.974;4.968;2023-09-08T11:24:02;32.30;99.90
9975;DHT22;5028;50.974;4.968;2023-09-08T11:26:33;32.70;99.90
9975;DHT22;5028;50.974;4.968;2023-09-08T11:29:02;32.80;99.90
9975;DHT22;5028;50.974;4.968;2023-09-08T11:31:32;33.00;99.90
9975;DHT22;5028;50.974;4.968;2023-09-08T11:34:03;33.00;99.90
9975;DHT22;5028;50.974;4.968;2023-09-08T11:36:34;33.00;99.90
9975;DHT22;5028;50.974;4.968;2023-09-08T11:39:04;33.00;99.90
9975;DHT22;5028;50.974;4.968;2023-09-08T11:41:34;33.10;99.90
9975;DHT22;5028;50.974;4.968;2023-09-08T11:44:03;33.30;99.90
9975;DHT22;5028;50.974;4.968;2023-09-08T11:46:33;33.50;99.90
9975;DHT22;5028;50.974;4.968;2023-09-08T11:49:04;33.60;99.90
9975;DHT22;5028;50.974;4.968;2023-09-08T11:51:34;33.80;99.90
9975;DHT22;5028;50.974;4.968;2023-09-08T11:54:05;34.00;99.90
9975;DHT22;5028;50.974;4.968;2023-09-08T11:56:33;34.10;99.90
9975;DHT22;5028;50.974;4.968;2023-09-08T11:59:03;34.20;99.90
9975;DHT22;5028;50.974;4.968;2023-09-08T12:01:32;34.20;99.90
9975;DHT22;5028;50.974;4.968;2023-09-08T12:04:01;34.00;99.90
9975;DHT22;5028;50.974;4.968;2023-09-08T12:06:30;34.10;99.90
9975;DHT22;5028;50.974;4.968;2023-09-08T12:09:01;34.30;99.90
9975;DHT22;5028;50.974;4.968;2023-09-08T12:11:34;34.50;99.90
9975;DHT22;5028;50.974;4.968;2023-09-08T12:14:07;34.80;99.90
9975;DHT22;5028;50.974;4.968;2023-09-08T12:16:35;34.90;99.90
9975;DHT22;5028;50.974;4.968;2023-09-08T12:19:04;34.90;99.90
9975;DHT22;5028;50.974;4.968;2023-09-08T12:21:39;35.20;99.90
9975;DHT22;5028;50.974;4.968;2023-09-08T12:24:48;35.20;99.90
9975;DHT22;5028;50.974;4.968;2023-09-08T12:27:18;35.40;99.90
9975;DHT22;5028;50.974;4.968;2023-09-08T12:29:54;34.30;99.90
9975;DHT22;5028;50.974;4.968;2023-09-08T12:32:24;33.30;99.90
9975;DHT22;5028;50.974;4.968;2023-09-08T12:34:53;32.90;99.90
9975;DHT22;5028;50.974;4.968;2023-09-08T12:37:22;32.90;99.90
9975;DHT22;5028;50.974;4.968;2023-09-08T12:39:52;33.30;99.90
9975;DHT22;5028;50.974;4.968;2023-09-08T12:42:21;33.80;99.90
9975;DHT22;5028;50.974;4.968;2023-09-08T12:44:53;34.00;99.90
9975;DHT22;5028;50.974;4.968;2023-09-08T12:47:21;34.00;99.90
9975;DHT22;5028;50.974;4.968;2023-09-08T12:49:50;34.00;99.90
9975;DHT22;5028;50.974;4.968;2023-09-08T12:52:19;33.60;99.90
9975;DHT22;5028;50.974;4.968;2023-09-08T12:54:47;33.70;99.90
9975;DHT22;5028;50.974;4.968;2023-09-08T12:57:17;32.80;99.90
9975;DHT22;5028;50.974;4.968;2023-09-08T12:59:46;32.50;99.90
9975;DHT22;5028;50.974;4.968;2023-09-08T13:02:15;32.60;99.90
9975;DHT22;5028;50.974;4.968;2023-09-08T13:04:44;32.30;99.90
9975;DHT22;5028;50.974;4.968;2023-09-08T13:07:15;32.30;99.90
9975;DHT22;5028;50.974;4.968;2023-09-08T13:09:45;32.70;99.90
9975;DHT22;5028;50.974;4.968;2023-09-08T13:12:19;33.20;99.90
9975;DHT22;5028;50.974;4.968;2023-09-08T13:14:47;33.70;99.90
9975;DHT22;5028;50.974;4.968;2023-09-08T13:17:16;34.10;99.90
9975;DHT22;5028;50.974;4.968;2023-09-08T13:19:45;34.60;99.90
9975;DHT22;5028;50.974;4.968;2023-09-08T13:22:14;34.60;99.90
9975;DHT22;5028;50.974;4.968;2023-09-08T13:24:42;34.50;99.90
9975;DHT22;5028;50.974;4.968;2023-09-08T13:27:11;34.30;99.90
9975;DHT22;5028;50.974;4.968;2023-09-08T13:29:44;34.30;99.90
9975;DHT22;5028;50.974;4.968;2023-09-08T13:32:15;34.50;99.90
9975;DHT22;5028;50.974;4.968;2023-09-08T13:34:44;34.40;99.90
9975;DHT22;5028;50.974;4.968;2023-09-08T13:37:13;34.30;99.90
9975;DHT22;5028;50.974;4.968;2023-09-08T13:39:42;34.60;99.90
9975;DHT22;5028;50.974;4.968;2023-09-08T13:42:11;34.80;99.90
9975;DHT22;5028;50.974;4.968;2023-09-08T13:44:44;34.70;99.90
9975;DHT22;5028;50.974;4.968;2023-09-08T13:47:12;35.10;99.90
9975;DHT22;5028;50.974;4.968;2023-09-08T13:49:41;35.30;99.90
9975;DHT22;5028;50.974;4.968;2023-09-08T13:52:10;35.50;99.90
9975;DHT22;5028;50.974;4.968;2023-09-08T13:54:44;35.30;99.90
9975;DHT22;5028;50.974;4.968;2023-09-08T13:57:30;35.50;99.90
9975;DHT22;5028;50.974;4.968;2023-09-08T14:00:03;35.70;99.90
9975;DHT22;5028;50.974;4.968;2023-09-08T14:02:41;35.70;99.90
9975;DHT22;5028;50.974;4.968;2023-09-08T14:05:17;35.40;99.90
9975;DHT22;5028;50.974;4.968;2023-09-08T14:07:56;35.30;99.90
9975;DHT22;5028;50.974;4.968;2023-09-08T14:10:27;35.10;99.90
9975;DHT22;5028;50.974;4.968;2023-09-08T14:13:07;35.20;99.90
9975;DHT22;5028;50.974;4.968;2023-09-08T14:15:37;35.30;99.90
9975;DHT22;5028;50.974;4.968;2023-09-08T14:18:06;35.40;99.90
9975;DHT22;5028;50.974;4.968;2023-09-08T14:20:34;35.50;99.90
9975;DHT22;5028;50.974;4.968;2023-09-08T14:23:03;35.20;99.90
9975;DHT22;5028;50.974;4.968;2023-09-08T14:25:34;34.40;99.90
9975;DHT22;5028;50.974;4.968;2023-09-08T14:28:03;34.20;99.90
9975;DHT22;5028;50.974;4.968;2023-09-08T14:30:34;34.30;99.90
9975;DHT22;5028;50.974;4.968;2023-09-08T14:33:05;34.40;99.90
9975;DHT22;5028;50.974;4.968;2023-09-08T14:35:34;34.30;99.90
9975;DHT22;5028;50.974;4.968;2023-09-08T14:38:03;34.10;99.90
9975;DHT22;5028;50.974;4.968;2023-09-08T14:40:32;33.90;99.90
9975;DHT22;5028;50.974;4.968;2023-09-08T14:43:00;33.20;99.90
9975;DHT22;5028;50.974;4.968;2023-09-08T14:45:29;32.80;99.90
9975;DHT22;5028;50.974;4.968;2023-09-08T14:47:58;32.50;99.90
9975;DHT22;5028;50.974;4.968;2023-09-08T14:50:30;32.50;99.90
9975;DHT22;5028;50.974;4.968;2023-09-08T14:52:59;32.60;99.90
9975;DHT22;5028;50.974;4.968;2023-09-08T14:55:28;32.60;99.90
9975;DHT22;5028;50.974;4.968;2023-09-08T14:57:57;32.60;99.90
9975;DHT22;5028;50.974;4.968;2023-09-08T15:00:28;32.50;99.90
9975;DHT22;5028;50.974;4.968;2023-09-08T15:02:56;32.40;99.90
9975;DHT22;5028;50.974;4.968;2023-09-08T15:05:25;32.30;99.90
9975;DHT22;5028;50.974;4.968;2023-09-08T15:07:55;32.20;99.90
9975;DHT22;5028;50.974;4.968;2023-09-08T15:10:24;32.20;99.90
9975;DHT22;5028;50.974;4.968;2023-09-08T15:12:53;32.20;99.90
9975;DHT22;5028;50.974;4.968;2023-09-08T15:15:22;32.10;99.90
9975;DHT22;5028;50.974;4.968;2023-09-08T15:17:51;32.10;99.90
9975;DHT22;5028;50.974;4.968;2023-09-08T15:20:21;32.00;99.90
9975;DHT22;5028;50.974;4.968;2023-09-08T15:22:50;32.00;99.90
9975;DHT22;5028;50.974;4.968;2023-09-08T15:25:20;31.90;99.90
9975;DHT22;5028;50.974;4.968;2023-09-08T15:27:49;31.80;99.90
9975;DHT22;5028;50.974;4.968;2023-09-08T15:30:17;31.60;99.90
9975;DHT22;5028;50.974;4.968;2023-09-08T15:32:48;31.50;99.90
9975;DHT22;5028;50.974;4.968;2023-09-08T15:35:17;31.40;99.90
9975;DHT22;5028;50.974;4.968;2023-09-08T15:37:46;31.30;99.90
9975;DHT22;5028;50.974;4.968;2023-09-08T15:40:14;31.20;99.90
9975;DHT22;5028;50.974;4.968;2023-09-08T15:42:45;31.20;99.90
9975;DHT22;5028;50.974;4.968;2023-09-08T15:45:16;31.20;99.90
9975;DHT22;5028;50.974;4.968;2023-09-08T15:47:44;31.20;99.90
9975;DHT22;5028;50.974;4.968;2023-09-08T15:50:13;31.20;99.90
9975;DHT22;5028;50.974;4.968;2023-09-08T15:52:41;31.20;99.90
9975;DHT22;5028;50.974;4.968;2023-09-08T15:55:10;31.10;99.90
9975;DHT22;5028;50.974;4.968;2023-09-08T15:57:39;31.10;99.90
9975;DHT22;5028;50.974;4.968;2023-09-08T16:00:11;31.00;99.90
9975;DHT22;5028;50.974;4.968;2023-09-08T16:02:40;31.00;99.90
9975;DHT22;5028;50.974;4.968;2023-09-08T16:05:10;31.00;99.90
9975;DHT22;5028;50.974;4.968;2023-09-08T16:07:39;30.90;99.90
9975;DHT22;5028;50.974;4.968;2023-09-08T16:10:09;30.90;99.90
9975;DHT22;5028;50.974;4.968;2023-09-08T16:12:38;30.90;99.90
9975;DHT22;5028;50.974;4.968;2023-09-08T16:15:09;30.80;99.90
9975;DHT22;5028;50.974;4.968;2023-09-08T16:17:38;30.70;99.90
9975;DHT22;5028;50.974;4.968;2023-09-08T16:20:08;30.60;99.90